createdAt,value
2018-12-02T00:00:57.821Z,8.319702
2018-12-02T00:06:20.444Z,8.28949
2018-12-02T00:11:43.211Z,8.208923
2018-12-02T00:17:05.975Z,8.239136
2018-12-02T00:22:28.699Z,8.249207
2018-12-02T00:27:51.398Z,8.239136
2018-12-02T00:33:14.160Z,8.249207
2018-12-02T00:38:36.776Z,8.309631
2018-12-02T00:43:59.459Z,8.28949
2018-12-02T00:49:22.102Z,8.309631
2018-12-02T00:54:44.822Z,8.249207
2018-12-02T01:00:07.528Z,8.249207
2018-12-02T01:05:30.133Z,8.208923
2018-12-02T01:10:52.839Z,8.239136
2018-12-02T01:16:15.477Z,8.309631
2018-12-02T01:21:39.011Z,8.198853
2018-12-02T01:27:02.606Z,8.128357
2018-12-02T01:32:25.551Z,8.198853
2018-12-02T01:37:49.205Z,8.269348
2018-12-02T01:43:12.612Z,8.319702
2018-12-02T01:48:35.256Z,8.339844
2018-12-02T01:53:58.076Z,8.400269
2018-12-02T01:59:20.747Z,8.54126
2018-12-02T02:04:44.461Z,8.571472
2018-12-02T02:10:07.189Z,8.601685
2018-12-02T02:15:29.843Z,8.631897
2018-12-02T02:20:52.587Z,8.581543
2018-12-02T02:26:15.216Z,8.682251
2018-12-02T02:31:38.647Z,8.752747
2018-12-02T02:37:01.370Z,8.762817
2018-12-02T02:42:25.981Z,8.762817
2018-12-02T02:47:48.657Z,8.702393
2018-12-02T02:53:11.391Z,8.762817
2018-12-02T02:58:35.013Z,8.762817
2018-12-02T03:03:59.295Z,8.823242
2018-12-02T03:09:22.080Z,8.853455
2018-12-02T03:14:44.771Z,8.79303
2018-12-02T03:20:07.481Z,8.863525
2018-12-02T03:25:30.221Z,8.853455
2018-12-02T03:30:53.728Z,8.863525
2018-12-02T03:36:16.382Z,8.934021
2018-12-02T03:41:39.471Z,8.913879
2018-12-02T03:47:02.126Z,8.883667
2018-12-02T03:52:24.841Z,8.762817
2018-12-02T03:57:48.349Z,8.571472
2018-12-02T04:03:11.091Z,8.460693
2018-12-02T04:08:33.860Z,8.319702
2018-12-02T04:13:56.736Z,8.138428
2018-12-02T04:19:19.676Z,8.03772
2018-12-02T04:24:42.658Z,7.947083
2018-12-02T04:30:05.444Z,7.947083
2018-12-02T04:35:29.032Z,7.906799
2018-12-02T04:40:51.654Z,7.91687
2018-12-02T04:46:14.256Z,7.906799
2018-12-02T04:51:36.891Z,7.886658
2018-12-02T04:56:59.566Z,7.886658
2018-12-02T05:02:22.944Z,7.886658
2018-12-02T05:07:46.330Z,7.886658
2018-12-02T05:13:08.981Z,7.91687
2018-12-02T05:18:31.654Z,7.937012
2018-12-02T05:23:54.267Z,7.906799
2018-12-02T05:29:16.961Z,7.906799
2018-12-02T05:34:39.688Z,7.937012
2018-12-02T05:40:02.457Z,7.91687
2018-12-02T05:45:25.126Z,7.937012
2018-12-02T05:50:47.802Z,7.91687
2018-12-02T05:56:11.521Z,7.937012
2018-12-02T06:01:34.183Z,7.91687
2018-12-02T06:06:56.809Z,7.957153
2018-12-02T06:12:19.495Z,7.91687
2018-12-02T06:17:42.236Z,7.947083
2018-12-02T06:23:04.911Z,7.947083
2018-12-02T06:28:27.585Z,7.947083
2018-12-02T06:33:50.372Z,7.957153
2018-12-02T06:39:13.025Z,7.987366
2018-12-02T06:44:36.615Z,7.997437
2018-12-02T06:49:59.283Z,7.997437
2018-12-02T06:55:21.994Z,7.987366
2018-12-02T07:00:44.749Z,8.027649
2018-12-02T07:06:07.374Z,8.027649
2018-12-02T07:11:30.094Z,8.017578
2018-12-02T07:16:52.999Z,8.027649
2018-12-02T07:22:15.970Z,8.057861
2018-12-02T07:27:38.833Z,8.057861
2018-12-02T07:33:01.476Z,8.067932
2018-12-02T07:38:24.082Z,8.098145
2018-12-02T07:43:47.547Z,8.088074
2018-12-02T07:49:10.181Z,8.128357
2018-12-02T07:54:32.910Z,8.128357
2018-12-02T07:59:55.708Z,8.198853
2018-12-02T08:05:18.404Z,8.208923
2018-12-02T08:10:41.144Z,8.249207
2018-12-02T08:16:03.838Z,8.239136
2018-12-02T08:21:26.501Z,8.279419
2018-12-02T08:26:49.173Z,8.279419
2018-12-02T08:32:12.004Z,8.319702
2018-12-02T08:37:35.628Z,8.319702
2018-12-02T08:42:58.426Z,8.370056
2018-12-02T08:48:21.186Z,8.400269
2018-12-02T08:53:43.978Z,8.450623
2018-12-02T08:59:06.634Z,8.500977
2018-12-02T09:04:29.349Z,8.551331
2018-12-02T09:09:59.250Z,8.641968
2018-12-02T09:15:15.163Z,8.682251
2018-12-02T09:20:37.524Z,8.712463
2018-12-02T09:26:00.315Z,8.732605
2018-12-02T09:31:22.983Z,8.762817
2018-12-02T09:36:45.686Z,8.782959
2018-12-02T09:42:09.419Z,8.823242
2018-12-02T09:47:32.059Z,8.853455
2018-12-02T09:52:54.779Z,8.934021
2018-12-02T09:58:17.483Z,8.964233
2018-12-02T10:03:40.333Z,8.964233
2018-12-02T10:09:03.116Z,8.984375
2018-12-02T10:14:27.309Z,9.064941
2018-12-02T10:19:50.596Z,9.145508
2018-12-02T10:25:13.437Z,9.165649
2018-12-02T10:30:36.145Z,9.216003
2018-12-02T10:35:58.924Z,9.29657
2018-12-02T10:41:21.640Z,9.346924
2018-12-02T10:46:44.414Z,9.407349
2018-12-02T10:52:07.150Z,9.558411
2018-12-02T10:57:29.804Z,9.628906
2018-12-02T11:02:52.614Z,9.67926
2018-12-02T11:08:15.480Z,9.709473
2018-12-02T11:13:38.307Z,9.80011
2018-12-02T11:19:01.181Z,9.910889
2018-12-02T11:24:23.921Z,10.011597
2018-12-02T11:29:47.387Z,10.132446
2018-12-02T11:35:10.163Z,10.223083
2018-12-02T11:40:32.935Z,10.343933
2018-12-02T11:45:55.598Z,10.444641
2018-12-02T11:51:18.974Z,10.535278
2018-12-02T11:56:41.870Z,10.575562
2018-12-02T12:02:07.600Z,10.646057
2018-12-02T12:07:27.958Z,10.716553
2018-12-02T12:12:50.622Z,10.797119
2018-12-02T12:18:13.469Z,10.867615
2018-12-02T12:23:36.970Z,10.92804
2018-12-02T12:28:59.666Z,10.948181
2018-12-02T12:34:22.384Z,11.05896
2018-12-02T12:39:44.993Z,11.089172
2018-12-02T12:45:07.685Z,11.18988
2018-12-02T12:50:31.074Z,11.270447
2018-12-02T12:55:53.687Z,11.391296
2018-12-02T13:01:16.379Z,11.451721
2018-12-02T13:06:39.039Z,11.532288
2018-12-02T13:12:01.744Z,11.602783
2018-12-02T13:17:24.786Z,11.723633
2018-12-02T13:22:47.633Z,11.773987
2018-12-02T13:28:10.424Z,11.884766
2018-12-02T13:33:33.080Z,11.955261
2018-12-02T13:38:55.810Z,11.955261
2018-12-02T13:44:18.523Z,12.035828
2018-12-02T13:49:41.347Z,12.076111
2018-12-02T13:55:04.170Z,12.116394
2018-12-02T14:00:26.820Z,12.18689
2018-12-02T14:05:49.503Z,12.176819
2018-12-02T14:11:12.173Z,12.297668
2018-12-02T14:16:35.004Z,12.287598
2018-12-02T14:21:57.792Z,12.307739
2018-12-02T14:27:20.605Z,12.327881
2018-12-02T14:32:44.087Z,12.257385
2018-12-02T14:38:06.755Z,12.156677
2018-12-02T14:43:29.921Z,12.06604
2018-12-02T14:48:52.576Z,11.995544
2018-12-02T14:54:15.234Z,12.045898
2018-12-02T14:59:38.033Z,12.106323
2018-12-02T15:05:00.873Z,12.025757
2018-12-02T15:10:24.715Z,12.045898
2018-12-02T15:15:46.220Z,11.93512
2018-12-02T15:21:09.054Z,11.904907
2018-12-02T15:26:31.816Z,11.854553
2018-12-02T15:31:54.575Z,11.844482
2018-12-02T15:37:17.246Z,11.904907
2018-12-02T15:42:39.970Z,11.884766
2018-12-02T15:48:03.523Z,11.844482
2018-12-02T15:53:26.142Z,11.824341
2018-12-02T15:58:49.081Z,11.854553
2018-12-02T16:04:11.787Z,11.854553
2018-12-02T16:09:34.662Z,11.773987
2018-12-02T16:14:57.569Z,11.743774
2018-12-02T16:20:20.256Z,11.824341
2018-12-02T16:25:43.010Z,11.81427
2018-12-02T16:31:06.769Z,11.784058
2018-12-02T16:36:29.484Z,11.512146
2018-12-02T16:41:52.247Z,11.592712
2018-12-02T16:47:14.914Z,11.723633
2018-12-02T16:52:37.686Z,11.753845
2018-12-02T16:58:00.346Z,11.773987
2018-12-02T17:03:23.196Z,11.753845
2018-12-02T17:08:45.944Z,11.592712
2018-12-02T17:14:08.572Z,11.753845
2018-12-02T17:19:34.569Z,11.69342
2018-12-02T17:24:57.284Z,11.69342
2018-12-02T17:30:19.933Z,11.622925
2018-12-02T17:35:42.725Z,11.5625
2018-12-02T17:41:06.303Z,11.461792
2018-12-02T17:46:28.968Z,11.461792
2018-12-02T17:51:51.582Z,11.481934
2018-12-02T17:57:14.229Z,11.643066
2018-12-02T18:02:36.951Z,11.723633
2018-12-02T18:07:59.625Z,11.622925
2018-12-02T18:13:22.427Z,11.512146
2018-12-02T18:18:45.248Z,11.542358
2018-12-02T18:24:07.872Z,11.381226
2018-12-02T18:29:30.506Z,11.592712
2018-12-02T18:34:53.260Z,11.492004
2018-12-02T18:40:15.999Z,11.572571
2018-12-02T18:45:38.670Z,11.602783
2018-12-02T18:51:01.491Z,11.542358
2018-12-02T18:56:24.104Z,11.673279
2018-12-02T19:01:46.779Z,11.5625
2018-12-02T19:07:09.530Z,11.481934
2018-12-02T19:12:32.165Z,11.542358
2018-12-02T19:17:54.813Z,11.632996
2018-12-02T19:23:17.441Z,11.622925
2018-12-02T19:28:40.271Z,11.592712
2018-12-02T19:34:03.865Z,11.602783
2018-12-02T19:39:26.587Z,11.592712
2018-12-02T19:44:49.224Z,11.492004
2018-12-02T19:50:11.981Z,11.663208
2018-12-02T19:55:35.355Z,11.592712
2018-12-02T20:00:58.467Z,11.492004
2018-12-02T20:06:20.751Z,11.44165
2018-12-02T20:11:43.468Z,11.361084
2018-12-02T20:17:07.654Z,11.542358
2018-12-02T20:22:30.339Z,11.592712
2018-12-02T20:27:53.531Z,11.492004
2018-12-02T20:33:16.210Z,11.532288
2018-12-02T20:38:38.848Z,11.663208
2018-12-02T20:44:01.511Z,11.723633
2018-12-02T20:49:24.164Z,11.602783
2018-12-02T20:54:46.837Z,11.723633
2018-12-02T21:00:09.499Z,11.824341
2018-12-02T21:05:32.227Z,11.824341
2018-12-02T21:10:54.930Z,11.854553
2018-12-02T21:16:17.598Z,11.794128
2018-12-02T21:21:40.351Z,11.794128
2018-12-02T21:27:03.989Z,11.753845
2018-12-02T21:32:26.619Z,11.854553
2018-12-02T21:37:49.497Z,11.824341
2018-12-02T21:43:12.138Z,11.874695
2018-12-02T21:48:34.959Z,11.794128
2018-12-02T21:53:58.308Z,11.81427
2018-12-02T21:59:23.198Z,11.794128
2018-12-02T22:04:45.984Z,11.844482
2018-12-02T22:10:08.693Z,11.81427
2018-12-02T22:15:31.428Z,11.794128
2018-12-02T22:20:54.142Z,11.784058
2018-12-02T22:26:16.868Z,11.703491
2018-12-02T22:31:40.563Z,11.673279
2018-12-02T22:37:03.226Z,11.632996
2018-12-02T22:42:26.002Z,11.602783
2018-12-02T22:47:48.962Z,11.542358
2018-12-02T22:53:11.694Z,11.492004
2018-12-02T22:58:34.387Z,11.492004
2018-12-02T23:03:57.387Z,11.542358
2018-12-02T23:09:20.089Z,11.532288
2018-12-02T23:14:42.760Z,11.542358
2018-12-02T23:20:05.418Z,11.542358
2018-12-02T23:25:28.078Z,11.602783
2018-12-02T23:30:50.751Z,11.572571
2018-12-02T23:36:13.432Z,11.632996
2018-12-02T23:41:36.245Z,11.572571
2018-12-02T23:46:58.995Z,11.532288
2018-12-02T23:52:21.650Z,11.481934
2018-12-02T23:57:44.495Z,11.391296
